sensor_id;sensor_type;location;lat;lon;timestamp;temperature;humidity
20337;DHT22;10326;53.660;10.200;2022-11-02T00:01:00;14.40;70.20
20337;DHT22;10326;53.660;10.200;2022-11-02T00:03:32;14.40;70.20
20337;DHT22;10326;53.660;10.200;2022-11-02T00:05:58;14.40;70.10
20337;DHT22;10326;53.660;10.200;2022-11-02T00:08:26;14.40;70.10
20337;DHT22;10326;53.660;10.200;2022-11-02T00:10:53;14.50;70.20
20337;DHT22;10326;53.660;10.200;2022-11-02T00:13:20;14.40;70.10
20337;DHT22;10326;53.660;10.200;2022-11-02T00:15:48;14.50;70.10
20337;DHT22;10326;53.660;10.200;2022-11-02T00:18:15;14.40;70.10
20337;DHT22;10326;53.660;10.200;2022-11-02T00:20:42;14.40;70.10
20337;DHT22;10326;53.660;10.200;2022-11-02T00:23:10;14.40;70.00
20337;DHT22;10326;53.660;10.200;2022-11-02T00:25:41;14.40;70.10
20337;DHT22;10326;53.660;10.200;2022-11-02T00:28:11;14.40;70.10
20337;DHT22;10326;53.660;10.200;2022-11-02T00:30:39;14.40;70.00
20337;DHT22;10326;53.660;10.200;2022-11-02T00:33:07;14.40;70.00
20337;DHT22;10326;53.660;10.200;2022-11-02T00:35:35;14.40;70.10
20337;DHT22;10326;53.660;10.200;2022-11-02T00:38:02;14.30;70.20
20337;DHT22;10326;53.660;10.200;2022-11-02T00:40:29;14.40;70.20
20337;DHT22;10326;53.660;10.200;2022-11-02T00:42:57;14.40;70.30
20337;DHT22;10326;53.660;10.200;2022-11-02T00:45:24;14.40;70.30
20337;DHT22;10326;53.660;10.200;2022-11-02T00:47:51;14.40;70.30
20337;DHT22;10326;53.660;10.200;2022-11-02T00:50:19;14.30;70.80
20337;DHT22;10326;53.660;10.200;2022-11-02T00:52:46;14.30;70.30
20337;DHT22;10326;53.660;10.200;2022-11-02T00:55:13;14.40;70.30
20337;DHT22;10326;53.660;10.200;2022-11-02T00:57:43;14.40;70.30
20337;DHT22;10326;53.660;10.200;2022-11-02T01:00:12;14.40;70.40
20337;DHT22;10326;53.660;10.200;2022-11-02T01:02:41;14.40;70.50
20337;DHT22;10326;53.660;10.200;2022-11-02T01:05:09;14.40;70.40
20337;DHT22;10326;53.660;10.200;2022-11-02T01:07:38;14.40;70.50
20337;DHT22;10326;53.660;10.200;2022-11-02T01:10:07;14.40;70.50
20337;DHT22;10326;53.660;10.200;2022-11-02T01:12:35;14.50;70.50
20337;DHT22;10326;53.660;10.200;2022-11-02T01:15:04;14.50;70.50
20337;DHT22;10326;53.660;10.200;2022-11-02T01:17:32;14.50;70.60
20337;DHT22;10326;53.660;10.200;2022-11-02T01:19:59;14.50;70.60
20337;DHT22;10326;53.660;10.200;2022-11-02T01:22:26;14.50;70.50
20337;DHT22;10326;53.660;10.200;2022-11-02T01:24:55;14.50;70.60
20337;DHT22;10326;53.660;10.200;2022-11-02T01:27:22;14.50;70.60
20337;DHT22;10326;53.660;10.200;2022-11-02T01:29:49;14.50;70.70
20337;DHT22;10326;53.660;10.200;2022-11-02T01:32:16;14.50;70.70
20337;DHT22;10326;53.660;10.200;2022-11-02T01:34:43;14.40;70.60
20337;DHT22;10326;53.660;10.200;2022-11-02T01:37:10;14.40;70.60
20337;DHT22;10326;53.660;10.200;2022-11-02T01:39:37;14.50;70.60
20337;DHT22;10326;53.660;10.200;2022-11-02T01:42:16;14.50;70.60
20337;DHT22;10326;53.660;10.200;2022-11-02T01:44:44;14.50;70.80
20337;DHT22;10326;53.660;10.200;2022-11-02T01:47:13;14.50;70.60
20337;DHT22;10326;53.660;10.200;2022-11-02T01:49:46;14.40;70.70
20337;DHT22;10326;53.660;10.200;2022-11-02T01:52:17;14.50;70.60
20337;DHT22;10326;53.660;10.200;2022-11-02T01:54:50;14.40;70.70
20337;DHT22;10326;53.660;10.200;2022-11-02T01:57:21;14.50;70.80
20337;DHT22;10326;53.660;10.200;2022-11-02T01:59:51;14.40;70.70
20337;DHT22;10326;53.660;10.200;2022-11-02T02:02:24;14.50;70.80
20337;DHT22;10326;53.660;10.200;2022-11-02T02:04:56;14.40;70.80
20337;DHT22;10326;53.660;10.200;2022-11-02T02:07:26;14.50;70.80
20337;DHT22;10326;53.660;10.200;2022-11-02T02:09:54;14.50;70.90
20337;DHT22;10326;53.660;10.200;2022-11-02T02:12:23;14.50;70.90
20337;DHT22;10326;53.660;10.200;2022-11-02T02:14:52;14.50;71.00
20337;DHT22;10326;53.660;10.200;2022-11-02T02:17:35;14.50;71.00
20337;DHT22;10326;53.660;10.200;2022-11-02T02:20:10;14.50;71.10
20337;DHT22;10326;53.660;10.200;2022-11-02T02:23:16;14.50;70.90
20337;DHT22;10326;53.660;10.200;2022-11-02T02:26:19;14.50;70.90
20337;DHT22;10326;53.660;10.200;2022-11-02T02:29:09;14.50;71.00
20337;DHT22;10326;53.660;10.200;2022-11-02T02:31:45;14.50;70.90
20337;DHT22;10326;53.660;10.200;2022-11-02T02:34:16;14.50;71.00
20337;DHT22;10326;53.660;10.200;2022-11-02T02:36:48;14.50;70.90
20337;DHT22;10326;53.660;10.200;2022-11-02T02:39:20;14.50;71.00
20337;DHT22;10326;53.660;10.200;2022-11-02T02:41:54;14.50;71.10
20337;DHT22;10326;53.660;10.200;2022-11-02T02:44:28;14.60;71.30
20337;DHT22;10326;53.660;10.200;2022-11-02T02:47:00;14.50;71.20
20337;DHT22;10326;53.660;10.200;2022-11-02T02:49:35;14.60;71.30
20337;DHT22;10326;53.660;10.200;2022-11-02T02:52:04;14.60;71.80
20337;DHT22;10326;53.660;10.200;2022-11-02T02:54:36;14.60;71.40
20337;DHT22;10326;53.660;10.200;2022-11-02T02:57:07;14.60;71.50
20337;DHT22;10326;53.660;10.200;2022-11-02T02:59:39;14.60;71.50
20337;DHT22;10326;53.660;10.200;2022-11-02T03:02:12;14.60;71.50
20337;DHT22;10326;53.660;10.200;2022-11-02T03:04:42;14.60;71.60
20337;DHT22;10326;53.660;10.200;2022-11-02T03:07:11;14.70;71.60
20337;DHT22;10326;53.660;10.200;2022-11-02T03:09:45;14.70;71.80
20337;DHT22;10326;53.660;10.200;2022-11-02T03:12:22;14.70;71.80
20337;DHT22;10326;53.660;10.200;2022-11-02T03:15:06;14.70;71.80
20337;DHT22;10326;53.660;10.200;2022-11-02T03:17:44;14.70;71.80
20337;DHT22;10326;53.660;10.200;2022-11-02T03:20:21;14.80;72.00
20337;DHT22;10326;53.660;10.200;2022-11-02T03:23:04;14.80;72.20
20337;DHT22;10326;53.660;10.200;2022-11-02T03:25:44;14.80;72.50
20337;DHT22;10326;53.660;10.200;2022-11-02T03:28:24;14.80;72.70
20337;DHT22;10326;53.660;10.200;2022-11-02T03:31:05;14.80;72.80
20337;DHT22;10326;53.660;10.200;2022-11-02T03:33:38;14.90;73.00
20337;DHT22;10326;53.660;10.200;2022-11-02T03:36:15;14.80;73.00
20337;DHT22;10326;53.660;10.200;2022-11-02T03:38:50;14.80;73.30
20337;DHT22;10326;53.660;10.200;2022-11-02T03:41:20;14.80;73.30
20337;DHT22;10326;53.660;10.200;2022-11-02T03:43:52;14.80;73.40
20337;DHT22;10326;53.660;10.200;2022-11-02T03:46:23;14.80;73.60
20337;DHT22;10326;53.660;10.200;2022-11-02T03:48:53;14.80;73.60
20337;DHT22;10326;53.660;10.200;2022-11-02T03:51:22;14.80;74.40
20337;DHT22;10326;53.660;10.200;2022-11-02T03:53:55;14.80;73.90
20337;DHT22;10326;53.660;10.200;2022-11-02T03:56:30;14.80;73.90
20337;DHT22;10326;53.660;10.200;2022-11-02T03:59:01;14.80;73.80
20337;DHT22;10326;53.660;10.200;2022-11-02T04:01:31;14.70;73.60
20337;DHT22;10326;53.660;10.200;2022-11-02T04:04:04;14.80;74.00
20337;DHT22;10326;53.660;10.200;2022-11-02T04:06:32;14.70;73.80
20337;DHT22;10326;53.660;10.200;2022-11-02T04:09:00;14.70;73.80
20337;DHT22;10326;53.660;10.200;2022-11-02T04:11:30;14.70;73.90
20337;DHT22;10326;53.660;10.200;2022-11-02T04:14:15;14.70;74.00
20337;DHT22;10326;53.660;10.200;2022-11-02T04:17:02;14.70;73.80
20337;DHT22;10326;53.660;10.200;2022-11-02T04:19:50;14.70;73.90
20337;DHT22;10326;53.660;10.200;2022-11-02T04:22:20;14.60;73.70
20337;DHT22;10326;53.660;10.200;2022-11-02T04:25:12;14.60;73.90
20337;DHT22;10326;53.660;10.200;2022-11-02T04:27:55;14.60;73.90
20337;DHT22;10326;53.660;10.200;2022-11-02T04:30:33;14.60;73.90
20337;DHT22;10326;53.660;10.200;2022-11-02T04:33:01;14.60;73.90
20337;DHT22;10326;53.660;10.200;2022-11-02T04:35:59;14.50;74.00
20337;DHT22;10326;53.660;10.200;2022-11-02T04:38:28;14.50;73.90
20337;DHT22;10326;53.660;10.200;2022-11-02T04:41:27;14.50;73.90
20337;DHT22;10326;53.660;10.200;2022-11-02T04:44:21;14.50;73.90
20337;DHT22;10326;53.660;10.200;2022-11-02T04:46:54;14.50;74.00
20337;DHT22;10326;53.660;10.200;2022-11-02T04:49:26;14.50;74.00
20337;DHT22;10326;53.660;10.200;2022-11-02T04:51:54;14.50;74.10
20337;DHT22;10326;53.660;10.200;2022-11-02T04:54:21;14.40;74.60
20337;DHT22;10326;53.660;10.200;2022-11-02T04:56:54;14.40;74.10
20337;DHT22;10326;53.660;10.200;2022-11-02T04:59:23;14.40;74.10
20337;DHT22;10326;53.660;10.200;2022-11-02T05:01:51;14.40;74.10
20337;DHT22;10326;53.660;10.200;2022-11-02T05:04:18;14.40;74.20
20337;DHT22;10326;53.660;10.200;2022-11-02T05:06:48;14.40;74.20
20337;DHT22;10326;53.660;10.200;2022-11-02T05:09:17;14.40;74.30
20337;DHT22;10326;53.660;10.200;2022-11-02T05:11:46;14.40;74.20
20337;DHT22;10326;53.660;10.200;2022-11-02T05:14:15;14.40;74.30
20337;DHT22;10326;53.660;10.200;2022-11-02T05:16:42;14.40;74.40
20337;DHT22;10326;53.660;10.200;2022-11-02T05:19:11;14.40;74.20
20337;DHT22;10326;53.660;10.200;2022-11-02T05:21:38;14.40;74.30
20337;DHT22;10326;53.660;10.200;2022-11-02T05:24:08;14.40;74.70
20337;DHT22;10326;53.660;10.200;2022-11-02T05:26:35;14.40;74.30
20337;DHT22;10326;53.660;10.200;2022-11-02T05:29:03;14.40;74.90
20337;DHT22;10326;53.660;10.200;2022-11-02T05:31:33;14.40;74.40
20337;DHT22;10326;53.660;10.200;2022-11-02T05:34:00;14.40;74.40
20337;DHT22;10326;53.660;10.200;2022-11-02T05:36:27;14.30;74.40
20337;DHT22;10326;53.660;10.200;2022-11-02T05:38:55;14.30;74.40
20337;DHT22;10326;53.660;10.200;2022-11-02T05:41:24;14.30;74.50
20337;DHT22;10326;53.660;10.200;2022-11-02T05:43:54;14.40;74.50
20337;DHT22;10326;53.660;10.200;2022-11-02T05:46:23;14.30;74.50
20337;DHT22;10326;53.660;10.200;2022-11-02T05:48:50;14.30;74.50
20337;DHT22;10326;53.660;10.200;2022-11-02T05:51:17;14.30;74.60
20337;DHT22;10326;53.660;10.200;2022-11-02T05:53:44;14.30;74.60
20337;DHT22;10326;53.660;10.200;2022-11-02T05:56:12;14.40;74.60
20337;DHT22;10326;53.660;10.200;2022-11-02T05:58:40;14.30;74.50
20337;DHT22;10326;53.660;10.200;2022-11-02T06:01:09;14.30;74.60
20337;DHT22;10326;53.660;10.200;2022-11-02T06:03:36;14.40;74.60
20337;DHT22;10326;53.660;10.200;2022-11-02T06:06:05;14.40;74.60
20337;DHT22;10326;53.660;10.200;2022-11-02T06:08:34;14.40;74.60
20337;DHT22;10326;53.660;10.200;2022-11-02T06:11:03;14.30;74.60
20337;DHT22;10326;53.660;10.200;2022-11-02T06:13:30;14.30;74.70
20337;DHT22;10326;53.660;10.200;2022-11-02T06:15:59;14.30;74.70
20337;DHT22;10326;53.660;10.200;2022-11-02T06:18:27;14.30;74.80
20337;DHT22;10326;53.660;10.200;2022-11-02T06:20:56;14.30;74.80
20337;DHT22;10326;53.660;10.200;2022-11-02T06:23:23;14.30;74.90
20337;DHT22;10326;53.660;10.200;2022-11-02T06:25:51;14.30;75.00
20337;DHT22;10326;53.660;10.200;2022-11-02T06:28:18;14.30;75.00
20337;DHT22;10326;53.660;10.200;2022-11-02T06:30:46;14.40;75.20
20337;DHT22;10326;53.660;10.200;2022-11-02T06:33:15;14.40;75.20
20337;DHT22;10326;53.660;10.200;2022-11-02T06:35:43;14.40;75.30
20337;DHT22;10326;53.660;10.200;2022-11-02T06:38:10;14.40;75.30
20337;DHT22;10326;53.660;10.200;2022-11-02T06:40:38;14.40;75.30
20337;DHT22;10326;53.660;10.200;2022-11-02T06:43:05;14.40;75.40
20337;DHT22;10326;53.660;10.200;2022-11-02T06:45:32;14.50;75.50
20337;DHT22;10326;53.660;10.200;2022-11-02T06:47:59;14.40;75.40
20337;DHT22;10326;53.660;10.200;2022-11-02T06:50:28;14.40;75.50
20337;DHT22;10326;53.660;10.200;2022-11-02T06:52:55;14.50;75.60
20337;DHT22;10326;53.660;10.200;2022-11-02T06:55:22;14.50;75.50
20337;DHT22;10326;53.660;10.200;2022-11-02T06:57:50;14.50;75.60
20337;DHT22;10326;53.660;10.200;2022-11-02T07:00:17;14.50;75.60
20337;DHT22;10326;53.660;10.200;2022-11-02T07:02:44;14.50;75.60
20337;DHT22;10326;53.660;10.200;2022-11-02T07:05:12;14.50;75.70
20337;DHT22;10326;53.660;10.200;2022-11-02T07:07:40;14.50;75.60
20337;DHT22;10326;53.660;10.200;2022-11-02T07:10:08;14.50;75.70
20337;DHT22;10326;53.660;10.200;2022-11-02T07:12:35;14.60;75.70
20337;DHT22;10326;53.660;10.200;2022-11-02T07:15:03;14.60;75.80
20337;DHT22;10326;53.660;10.200;2022-11-02T07:17:30;14.60;75.90
20337;DHT22;10326;53.660;10.200;2022-11-02T07:19:57;14.60;75.90
20337;DHT22;10326;53.660;10.200;2022-11-02T07:22:24;14.60;76.00
20337;DHT22;10326;53.660;10.200;2022-11-02T07:24:53;14.60;76.00
20337;DHT22;10326;53.660;10.200;2022-11-02T07:27:20;14.70;76.20
20337;DHT22;10326;53.660;10.200;2022-11-02T07:29:47;14.70;76.80
20337;DHT22;10326;53.660;10.200;2022-11-02T07:32:14;14.70;76.20
20337;DHT22;10326;53.660;10.200;2022-11-02T07:34:41;14.70;76.30
20337;DHT22;10326;53.660;10.200;2022-11-02T07:37:08;14.70;76.20
20337;DHT22;10326;53.660;10.200;2022-11-02T07:39:35;14.80;76.30
20337;DHT22;10326;53.660;10.200;2022-11-02T07:42:03;14.80;76.30
20337;DHT22;10326;53.660;10.200;2022-11-02T07:44:32;14.80;76.40
20337;DHT22;10326;53.660;10.200;2022-11-02T07:46:59;14.80;76.20
20337;DHT22;10326;53.660;10.200;2022-11-02T07:49:26;14.80;76.20
20337;DHT22;10326;53.660;10.200;2022-11-02T07:51:54;14.90;76.20
20337;DHT22;10326;53.660;10.200;2022-11-02T07:54:21;14.90;76.20
20337;DHT22;10326;53.660;10.200;2022-11-02T07:56:48;14.90;76.20
20337;DHT22;10326;53.660;10.200;2022-11-02T07:59:17;14.90;76.10
20337;DHT22;10326;53.660;10.200;2022-11-02T08:01:44;14.90;76.10
20337;DHT22;10326;53.660;10.200;2022-11-02T08:04:11;14.90;76.10
20337;DHT22;10326;53.660;10.200;2022-11-02T08:06:38;15.00;76.30
20337;DHT22;10326;53.660;10.200;2022-11-02T08:09:05;15.00;76.30
20337;DHT22;10326;53.660;10.200;2022-11-02T08:11:32;15.00;76.20
20337;DHT22;10326;53.660;10.200;2022-11-02T08:13:59;15.00;76.20
20337;DHT22;10326;53.660;10.200;2022-11-02T08:16:28;15.10;76.20
20337;DHT22;10326;53.660;10.200;2022-11-02T08:18:55;15.10;76.10
20337;DHT22;10326;53.660;10.200;2022-11-02T08:21:23;15.10;76.20
20337;DHT22;10326;53.660;10.200;2022-11-02T08:23:51;15.10;76.20
20337;DHT22;10326;53.660;10.200;2022-11-02T08:26:18;15.20;76.30
20337;DHT22;10326;53.660;10.200;2022-11-02T08:28:45;15.20;76.10
20337;DHT22;10326;53.660;10.200;2022-11-02T08:31:14;15.20;76.10
20337;DHT22;10326;53.660;10.200;2022-11-02T08:33:44;15.20;76.00
20337;DHT22;10326;53.660;10.200;2022-11-02T08:36:11;15.30;76.00
20337;DHT22;10326;53.660;10.200;2022-11-02T08:38:38;15.30;75.80
20337;DHT22;10326;53.660;10.200;2022-11-02T08:41:06;15.30;75.70
20337;DHT22;10326;53.660;10.200;2022-11-02T08:43:34;15.30;75.50
20337;DHT22;10326;53.660;10.200;2022-11-02T08:46:01;15.30;75.30
20337;DHT22;10326;53.660;10.200;2022-11-02T08:48:28;15.30;75.30
20337;DHT22;10326;53.660;10.200;2022-11-02T08:50:57;15.30;75.20
20337;DHT22;10326;53.660;10.200;2022-11-02T08:53:24;15.40;75.10
20337;DHT22;10326;53.660;10.200;2022-11-02T08:55:51;15.40;75.00
20337;DHT22;10326;53.660;10.200;2022-11-02T08:58:18;15.40;74.80
20337;DHT22;10326;53.660;10.200;2022-11-02T09:00:45;15.40;74.80
20337;DHT22;10326;53.660;10.200;2022-11-02T09:03:14;15.40;74.80
20337;DHT22;10326;53.660;10.200;2022-11-02T09:05:42;15.40;74.70
20337;DHT22;10326;53.660;10.200;2022-11-02T09:08:13;15.50;74.60
20337;DHT22;10326;53.660;10.200;2022-11-02T09:10:42;15.50;74.50
20337;DHT22;10326;53.660;10.200;2022-11-02T09:13:11;15.60;74.60
20337;DHT22;10326;53.660;10.200;2022-11-02T09:15:39;15.60;74.50
20337;DHT22;10326;53.660;10.200;2022-11-02T09:18:07;15.50;74.30
20337;DHT22;10326;53.660;10.200;2022-11-02T09:20:35;15.60;74.30
20337;DHT22;10326;53.660;10.200;2022-11-02T09:23:03;15.60;74.10
20337;DHT22;10326;53.660;10.200;2022-11-02T09:25:31;15.70;74.00
20337;DHT22;10326;53.660;10.200;2022-11-02T09:27:59;15.70;73.90
20337;DHT22;10326;53.660;10.200;2022-11-02T09:30:26;15.70;73.90
20337;DHT22;10326;53.660;10.200;2022-11-02T09:32:57;15.70;74.30
20337;DHT22;10326;53.660;10.200;2022-11-02T09:35:26;15.70;73.60
20337;DHT22;10326;53.660;10.200;2022-11-02T09:37:54;15.70;73.30
20337;DHT22;10326;53.660;10.200;2022-11-02T09:40:23;15.70;73.50
20337;DHT22;10326;53.660;10.200;2022-11-02T09:43:00;15.80;73.50
20337;DHT22;10326;53.660;10.200;2022-11-02T09:45:33;15.80;73.50
20337;DHT22;10326;53.660;10.200;2022-11-02T09:48:06;15.80;73.40
20337;DHT22;10326;53.660;10.200;2022-11-02T09:50:42;15.80;73.20
20337;DHT22;10326;53.660;10.200;2022-11-02T09:53:16;15.80;73.20
20337;DHT22;10326;53.660;10.200;2022-11-02T09:55:49;15.80;73.10
20337;DHT22;10326;53.660;10.200;2022-11-02T09:58:23;15.90;73.10
20337;DHT22;10326;53.660;10.200;2022-11-02T10:00:56;15.90;73.00
20337;DHT22;10326;53.660;10.200;2022-11-02T10:03:35;15.90;73.00
20337;DHT22;10326;53.660;10.200;2022-11-02T10:06:10;15.90;73.00
20337;DHT22;10326;53.660;10.200;2022-11-02T10:08:48;15.90;72.90
20337;DHT22;10326;53.660;10.200;2022-11-02T10:11:30;15.90;72.70
20337;DHT22;10326;53.660;10.200;2022-11-02T10:14:08;15.90;72.70
20337;DHT22;10326;53.660;10.200;2022-11-02T10:16:43;15.90;73.00
20337;DHT22;10326;53.660;10.200;2022-11-02T10:19:19;15.80;73.30
20337;DHT22;10326;53.660;10.200;2022-11-02T10:21:48;15.80;73.60
20337;DHT22;10326;53.660;10.200;2022-11-02T10:24:23;15.70;73.90
20337;DHT22;10326;53.660;10.200;2022-11-02T10:26:53;15.70;74.30
20337;DHT22;10326;53.660;10.200;2022-11-02T10:29:34;15.60;74.30
20337;DHT22;10326;53.660;10.200;2022-11-02T10:32:09;15.60;74.30
20337;DHT22;10326;53.660;10.200;2022-11-02T10:34:37;15.50;74.40
20337;DHT22;10326;53.660;10.200;2022-11-02T10:37:18;15.40;74.30
20337;DHT22;10326;53.660;10.200;2022-11-02T10:39:59;15.40;74.60
20337;DHT22;10326;53.660;10.200;2022-11-02T10:42:46;15.30;74.60
20337;DHT22;10326;53.660;10.200;2022-11-02T10:45:47;15.20;74.90
20337;DHT22;10326;53.660;10.200;2022-11-02T10:48:31;15.10;75.20
20337;DHT22;10326;53.660;10.200;2022-11-02T10:51:06;15.00;74.60
20337;DHT22;10326;53.660;10.200;2022-11-02T10:53:35;15.00;74.70
20337;DHT22;10326;53.660;10.200;2022-11-02T10:56:12;14.90;75.00
20337;DHT22;10326;53.660;10.200;2022-11-02T10:58:46;14.80;75.50
20337;DHT22;10326;53.660;10.200;2022-11-02T11:01:17;14.80;75.70
20337;DHT22;10326;53.660;10.200;2022-11-02T11:03:56;14.80;76.10
20337;DHT22;10326;53.660;10.200;2022-11-02T11:06:27;14.80;76.70
20337;DHT22;10326;53.660;10.200;2022-11-02T11:09:00;14.80;76.60
20337;DHT22;10326;53.660;10.200;2022-11-02T11:11:32;14.90;76.80
20337;DHT22;10326;53.660;10.200;2022-11-02T11:14:03;14.90;77.00
20337;DHT22;10326;53.660;10.200;2022-11-02T11:16:41;14.90;77.10
20337;DHT22;10326;53.660;10.200;2022-11-02T11:19:20;15.00;77.10
20337;DHT22;10326;53.660;10.200;2022-11-02T11:21:49;15.00;77.60
20337;DHT22;10326;53.660;10.200;2022-11-02T11:24:25;15.10;77.20
20337;DHT22;10326;53.660;10.200;2022-11-02T11:27:15;15.20;77.20
20337;DHT22;10326;53.660;10.200;2022-11-02T11:29:49;15.20;77.10
20337;DHT22;10326;53.660;10.200;2022-11-02T11:32:22;15.30;76.70
20337;DHT22;10326;53.660;10.200;2022-11-02T11:34:55;15.30;76.40
20337;DHT22;10326;53.660;10.200;2022-11-02T11:37:24;15.30;76.40
20337;DHT22;10326;53.660;10.200;2022-11-02T11:39:56;15.40;76.50
20337;DHT22;10326;53.660;10.200;2022-11-02T11:42:27;15.40;76.50
20337;DHT22;10326;53.660;10.200;2022-11-02T11:45:00;15.40;76.10
20337;DHT22;10326;53.660;10.200;2022-11-02T11:47:33;15.50;76.20
20337;DHT22;10326;53.660;10.200;2022-11-02T11:50:03;15.50;76.00
20337;DHT22;10326;53.660;10.200;2022-11-02T11:52:32;15.50;76.00
20337;DHT22;10326;53.660;10.200;2022-11-02T11:55:04;15.60;76.10
20337;DHT22;10326;53.660;10.200;2022-11-02T11:57:46;15.60;75.60
20337;DHT22;10326;53.660;10.200;2022-11-02T12:00:25;15.60;75.50
20337;DHT22;10326;53.660;10.200;2022-11-02T12:03:03;15.70;76.30
20337;DHT22;10326;53.660;10.200;2022-11-02T12:05:36;15.70;76.20
20337;DHT22;10326;53.660;10.200;2022-11-02T12:08:27;15.80;76.30
20337;DHT22;10326;53.660;10.200;2022-11-02T12:11:21;16.00;75.50
20337;DHT22;10326;53.660;10.200;2022-11-02T12:14:09;16.00;75.10
20337;DHT22;10326;53.660;10.200;2022-11-02T12:16:58;16.10;74.90
20337;DHT22;10326;53.660;10.200;2022-11-02T12:20:00;16.10;74.40
20337;DHT22;10326;53.660;10.200;2022-11-02T12:22:41;16.10;74.00
20337;DHT22;10326;53.660;10.200;2022-11-02T12:25:21;16.10;73.80
20337;DHT22;10326;53.660;10.200;2022-11-02T12:28:00;16.00;73.50
20337;DHT22;10326;53.660;10.200;2022-11-02T12:30:38;15.90;73.30
20337;DHT22;10326;53.660;10.200;2022-11-02T12:33:26;15.90;73.20
20337;DHT22;10326;53.660;10.200;2022-11-02T12:36:17;15.80;72.80
20337;DHT22;10326;53.660;10.200;2022-11-02T12:38:59;15.70;72.80
20337;DHT22;10326;53.660;10.200;2022-11-02T12:41:42;15.70;73.30
20337;DHT22;10326;53.660;10.200;2022-11-02T12:44:25;15.70;74.10
20337;DHT22;10326;53.660;10.200;2022-11-02T12:47:09;15.80;75.00
20337;DHT22;10326;53.660;10.200;2022-11-02T12:49:48;15.90;75.50
20337;DHT22;10326;53.660;10.200;2022-11-02T12:52:35;16.10;74.60
20337;DHT22;10326;53.660;10.200;2022-11-02T12:55:13;16.30;75.10
20337;DHT22;10326;53.660;10.200;2022-11-02T12:57:42;16.50;73.30
20337;DHT22;10326;53.660;10.200;2022-11-02T13:00:18;16.60;73.50
20337;DHT22;10326;53.660;10.200;2022-11-02T13:02:55;16.70;72.10
20337;DHT22;10326;53.660;10.200;2022-11-02T13:05:28;16.80;72.10
20337;DHT22;10326;53.660;10.200;2022-11-02T13:08:05;16.80;71.80
20337;DHT22;10326;53.660;10.200;2022-11-02T13:10:41;16.90;71.90
20337;DHT22;10326;53.660;10.200;2022-11-02T13:13:13;16.90;71.30
20337;DHT22;10326;53.660;10.200;2022-11-02T13:15:44;17.00;71.60
20337;DHT22;10326;53.660;10.200;2022-11-02T13:18:16;17.10;71.00
20337;DHT22;10326;53.660;10.200;2022-11-02T13:20:48;17.10;69.70
20337;DHT22;10326;53.660;10.200;2022-11-02T13:23:27;17.20;70.00
20337;DHT22;10326;53.660;10.200;2022-11-02T13:25:58;17.30;69.90
20337;DHT22;10326;53.660;10.200;2022-11-02T13:28:32;17.40;69.10
20337;DHT22;10326;53.660;10.200;2022-11-02T13:31:03;17.40;67.80
20337;DHT22;10326;53.660;10.200;2022-11-02T13:33:39;17.30;67.90
20337;DHT22;10326;53.660;10.200;2022-11-02T13:36:08;17.20;67.70
20337;DHT22;10326;53.660;10.200;2022-11-02T13:38:39;17.20;67.80
20337;DHT22;10326;53.660;10.200;2022-11-02T13:41:24;17.10;67.80
20337;DHT22;10326;53.660;10.200;2022-11-02T13:44:30;17.10;67.70
20337;DHT22;10326;53.660;10.200;2022-11-02T13:47:15;17.00;67.90
20337;DHT22;10326;53.660;10.200;2022-11-02T13:49:56;16.90;67.50
20337;DHT22;10326;53.660;10.200;2022-11-02T13:52:29;16.90;67.70
20337;DHT22;10326;53.660;10.200;2022-11-02T13:55:04;16.80;67.30
20337;DHT22;10326;53.660;10.200;2022-11-02T13:57:35;16.70;67.40
20337;DHT22;10326;53.660;10.200;2022-11-02T14:00:23;16.70;67.30
20337;DHT22;10326;53.660;10.200;2022-11-02T14:02:57;16.60;67.60
20337;DHT22;10326;53.660;10.200;2022-11-02T14:05:30;16.50;67.60
20337;DHT22;10326;53.660;10.200;2022-11-02T14:08:00;16.50;67.80
20337;DHT22;10326;53.660;10.200;2022-11-02T14:10:30;16.40;67.40
20337;DHT22;10326;53.660;10.200;2022-11-02T14:13:01;16.40;67.50
20337;DHT22;10326;53.660;10.200;2022-11-02T14:15:40;16.30;68.10
20337;DHT22;10326;53.660;10.200;2022-11-02T14:18:13;16.30;67.70
20337;DHT22;10326;53.660;10.200;2022-11-02T14:20:43;16.30;68.00
20337;DHT22;10326;53.660;10.200;2022-11-02T14:23:37;16.30;68.30
20337;DHT22;10326;53.660;10.200;2022-11-02T14:26:31;16.20;67.80
20337;DHT22;10326;53.660;10.200;2022-11-02T14:29:02;16.20;68.00
20337;DHT22;10326;53.660;10.200;2022-11-02T14:31:54;16.30;68.50
20337;DHT22;10326;53.660;10.200;2022-11-02T14:34:51;16.30;68.00
20337;DHT22;10326;53.660;10.200;2022-11-02T14:37:38;16.30;68.20
20337;DHT22;10326;53.660;10.200;2022-11-02T14:40:23;16.30;67.80
20337;DHT22;10326;53.660;10.200;2022-11-02T14:43:22;16.30;67.70
20337;DHT22;10326;53.660;10.200;2022-11-02T14:46:21;16.30;67.70
20337;DHT22;10326;53.660;10.200;2022-11-02T14:48:55;16.30;68.00
20337;DHT22;10326;53.660;10.200;2022-11-02T14:51:25;16.30;67.80
20337;DHT22;10326;53.660;10.200;2022-11-02T14:53:55;16.30;67.60
20337;DHT22;10326;53.660;10.200;2022-11-02T14:56:45;16.20;67.10
20337;DHT22;10326;53.660;10.200;2022-11-02T14:59:17;16.20;67.40
20337;DHT22;10326;53.660;10.200;2022-11-02T15:01:50;16.20;67.50
20337;DHT22;10326;53.660;10.200;2022-11-02T15:04:21;16.20;67.10
20337;DHT22;10326;53.660;10.200;2022-11-02T15:06:52;16.20;67.40
20337;DHT22;10326;53.660;10.200;2022-11-02T15:09:53;16.20;67.50
20337;DHT22;10326;53.660;10.200;2022-11-02T15:12:35;16.20;67.20
20337;DHT22;10326;53.660;10.200;2022-11-02T15:15:29;16.10;67.30
20337;DHT22;10326;53.660;10.200;2022-11-02T15:18:31;16.10;67.50
20337;DHT22;10326;53.660;10.200;2022-11-02T15:21:25;16.10;67.50
20337;DHT22;10326;53.660;10.200;2022-11-02T15:24:05;16.00;67.30
20337;DHT22;10326;53.660;10.200;2022-11-02T15:26:41;16.00;67.30
20337;DHT22;10326;53.660;10.200;2022-11-02T15:29:26;16.00;67.40
20337;DHT22;10326;53.660;10.200;2022-11-02T15:32:05;16.00;67.20
20337;DHT22;10326;53.660;10.200;2022-11-02T15:34:38;15.90;67.40
20337;DHT22;10326;53.660;10.200;2022-11-02T15:37:07;15.90;67.30
20337;DHT22;10326;53.660;10.200;2022-11-02T15:39:38;15.80;67.20
20337;DHT22;10326;53.660;10.200;2022-11-02T15:42:14;15.80;67.20
20337;DHT22;10326;53.660;10.200;2022-11-02T15:45:16;15.80;66.90
20337;DHT22;10326;53.660;10.200;2022-11-02T15:47:53;15.70;66.60
20337;DHT22;10326;53.660;10.200;2022-11-02T15:50:33;15.70;66.70
20337;DHT22;10326;53.660;10.200;2022-11-02T15:53:27;15.70;66.80